Time;durP1;ratioP1;P1;durP2;ratioP2;P2;SDS_P1;SDS_P2;PMS_P1;PMS_P2;Temp;Humidity;BMP_temperature;BMP_pressure;BME280_temperature;BME280_humidity;BME280_pressure;Samples;Min_cycle;Max_cycle;Signal;HPM_P1;HPM_P2
2021/10/26 00:01:40;;;;;;;25.95;14.70;;;7.40;99.90;;;;;;5035291;28;20139;-68
2021/10/26 00:04:08;;;;;;;27.90;14.77;;;7.40;99.90;;;;;;5035139;28;20067;-70
2021/10/26 00:06:35;;;;;;;23.85;13.45;;;7.50;99.90;;;;;;5034654;28;20053;-68
2021/10/26 00:09:05;;;;;;;23.92;13.88;;;7.60;99.90;;;;;;5034929;28;20203;-68
2021/10/26 00:11:32;;;;;;;23.88;13.95;;;7.80;99.90;;;;;;5034294;28;20061;-70
2021/10/26 00:13:59;;;;;;;21.98;13.95;;;7.90;99.90;;;;;;5035119;28;20110;-68
2021/10/26 00:16:27;;;;;;;26.20;14.70;;;8.00;99.90;;;;;;5033349;28;20072;-66
2021/10/26 00:18:54;;;;;;;26.02;14.27;;;8.00;99.90;;;;;;5034684;28;20045;-68
2021/10/26 00:21:21;;;;;;;26.35;14.68;;;8.00;99.90;;;;;;5033976;28;20057;-68
2021/10/26 00:23:48;;;;;;;25.45;14.32;;;7.90;99.90;;;;;;5034404;28;20472;-68
2021/10/26 00:26:17;;;;;;;30.75;15.23;;;7.80;99.90;;;;;;5033653;28;20742;-68
2021/10/26 00:28:44;;;;;;;30.45;15.02;;;7.70;99.90;;;;;;5033846;28;20049;-68
2021/10/26 00:31:11;;;;;;;26.63;14.73;;;7.60;99.90;;;;;;5033900;28;20456;-69
2021/10/26 00:33:38;;;;;;;26.85;14.80;;;7.60;99.90;;;;;;5034271;28;20510;-68
2021/10/26 00:36:05;;;;;;;29.13;15.63;;;7.50;99.90;;;;;;5033787;28;20475;-69
2021/10/26 00:38:32;;;;;;;27.90;15.52;;;7.50;99.90;;;;;;5034958;28;20053;-68
2021/10/26 00:40:59;;;;;;;27.17;14.55;;;7.40;99.90;;;;;;5033605;28;20108;-69
2021/10/26 00:43:28;;;;;;;26.20;15.45;;;7.10;99.90;;;;;;5033669;28;20398;-68
2021/10/26 00:45:55;;;;;;;28.45;14.95;;;7.10;99.90;;;;;;5033227;28;20080;-69
2021/10/26 00:48:22;;;;;;;29.95;16.17;;;7.10;99.90;;;;;;5033340;28;20041;-68
2021/10/26 00:50:49;;;;;;;28.02;15.23;;;6.90;99.90;;;;;;5034131;28;20076;-68
2021/10/26 00:53:18;;;;;;;28.45;15.45;;;6.90;99.90;;;;;;5034211;28;20102;-69
2021/10/26 00:55:45;;;;;;;29.13;15.68;;;7.30;99.90;;;;;;5033695;28;20439;-68
2021/10/26 00:58:12;;;;;;;25.40;14.65;;;7.30;99.90;;;;;;5033945;28;20057;-69
2021/10/26 01:00:41;;;;;;;28.85;17.23;;;7.40;99.90;;;;;;5032990;28;20045;-69
2021/10/26 01:03:08;;;;;;;31.25;15.82;;;7.30;99.90;;;;;;5033294;28;20452;-69
2021/10/26 01:05:35;;;;;;;27.77;15.77;;;7.30;99.90;;;;;;5032533;28;20110;-68
2021/10/26 01:08:02;;;;;;;30.00;16.38;;;7.10;99.90;;;;;;5033317;28;20055;-68
2021/10/26 01:10:29;;;;;;;29.60;16.70;;;7.10;99.90;;;;;;5032494;28;20460;-69
2021/10/26 01:12:57;;;;;;;27.70;16.17;;;7.20;99.90;;;;;;5033291;28;20060;-69
2021/10/26 01:15:24;;;;;;;29.85;17.10;;;7.20;99.90;;;;;;5033825;28;20454;-70
2021/10/26 01:17:53;;;;;;;27.95;15.18;;;7.30;99.90;;;;;;5034422;28;20061;-69
2021/10/26 01:20:21;;;;;;;26.23;15.82;;;7.40;99.90;;;;;;5035343;28;20505;-69
2021/10/26 01:22:48;;;;;;;25.58;15.00;;;7.50;99.90;;;;;;5034933;28;20581;-70
2021/10/26 01:25:16;;;;;;;29.35;16.30;;;7.50;99.90;;;;;;5034858;28;20115;-68
2021/10/26 01:27:44;;;;;;;33.35;17.42;;;7.50;99.90;;;;;;5038881;28;20525;-69
2021/10/26 01:30:14;;;;;;;30.80;15.05;;;7.50;99.90;;;;;;5038527;28;20567;-69
2021/10/26 01:32:41;;;;;;;35.92;17.05;;;7.50;99.90;;;;;;5038174;28;20053;-71
2021/10/26 01:35:09;;;;;;;31.50;15.90;;;7.40;99.90;;;;;;5037281;28;20060;-69
2021/10/26 01:37:37;;;;;;;30.73;16.17;;;7.50;99.90;;;;;;5038045;28;20064;-69
2021/10/26 01:40:06;;;;;;;33.90;17.83;;;7.40;99.90;;;;;;5037416;28;20057;-69
2021/10/26 01:42:33;;;;;;;30.65;15.57;;;7.40;99.90;;;;;;5038427;28;20049;-69
2021/10/26 01:45:00;;;;;;;28.42;16.42;;;7.40;99.90;;;;;;5037488;28;20445;-68
2021/10/26 01:47:27;;;;;;;28.48;16.20;;;7.40;99.90;;;;;;5036036;28;20084;-68
2021/10/26 01:49:54;;;;;;;27.63;16.80;;;7.40;99.90;;;;;;5038364;28;20445;-68
2021/10/26 01:52:22;;;;;;;28.88;16.98;;;7.30;99.90;;;;;;5036662;28;20129;-69
2021/10/26 01:54:50;;;;;;;28.33;16.58;;;7.40;99.90;;;;;;5037793;28;20111;-69
2021/10/26 01:57:19;;;;;;;32.63;16.88;;;7.40;99.90;;;;;;5036031;28;20098;-69
2021/10/26 01:59:47;;;;;;;28.65;15.88;;;7.40;99.90;;;;;;5036683;28;20086;-68
2021/10/26 02:02:14;;;;;;;27.52;16.27;;;7.40;99.90;;;;;;5038004;28;20076;-68
2021/10/26 02:04:41;;;;;;;28.15;16.35;;;7.40;99.90;;;;;;5037750;28;20135;-68
2021/10/26 02:07:08;;;;;;;29.90;15.82;;;7.40;99.90;;;;;;5037229;28;20480;-67
2021/10/26 02:09:35;;;;;;;27.73;15.60;;;7.50;99.90;;;;;;5037968;28;20111;-68
2021/10/26 02:12:05;;;;;;;30.10;16.48;;;7.50;99.90;;;;;;5037136;28;20571;-68
2021/10/26 02:14:32;;;;;;;27.98;16.38;;;7.50;99.90;;;;;;5037241;28;20064;-69
2021/10/26 02:16:59;;;;;;;25.00;15.50;;;7.40;99.90;;;;;;5037410;28;20056;-68
2021/10/26 02:19:27;;;;;;;25.40;16.27;;;7.30;99.90;;;;;;5037031;28;20053;-68
2021/10/26 02:21:54;;;;;;;29.10;16.77;;;7.40;99.90;;;;;;5036728;28;20048;-68
2021/10/26 02:24:22;;;;;;;30.05;16.90;;;7.40;99.90;;;;;;5036905;28;20558;-68
2021/10/26 02:26:49;;;;;;;26.27;15.52;;;7.40;99.90;;;;;;5035978;28;20509;-69
2021/10/26 02:29:17;;;;;;;30.27;15.27;;;7.40;99.90;;;;;;5036091;28;20099;-69
2021/10/26 02:31:44;;;;;;;30.42;15.65;;;7.40;99.90;;;;;;5037193;28;20053;-68
2021/10/26 02:34:11;;;;;;;29.35;16.83;;;7.50;99.90;;;;;;5036726;28;20800;-68
2021/10/26 02:36:38;;;;;;;26.85;15.43;;;7.50;99.90;;;;;;5035959;28;20053;-68
2021/10/26 02:39:07;;;;;;;28.80;16.25;;;7.50;99.90;;;;;;5036464;28;20099;-69
2021/10/26 02:41:34;;;;;;;25.27;15.30;;;7.50;99.90;;;;;;5036489;28;20060;-69
2021/10/26 02:44:01;;;;;;;22.73;14.07;;;7.50;99.90;;;;;;5036434;28;20055;-70
2021/10/26 02:46:30;;;;;;;32.35;16.83;;;7.40;99.90;;;;;;5035357;28;20709;-68
2021/10/26 02:48:57;;;;;;;25.65;15.18;;;7.50;99.90;;;;;;5036154;28;20049;-68
2021/10/26 02:51:24;;;;;;;27.33;16.33;;;7.50;99.90;;;;;;5036157;28;20053;-68
2021/10/26 02:53:51;;;;;;;25.90;15.25;;;7.40;99.90;;;;;;5035979;28;20056;-68
2021/10/26 02:56:18;;;;;;;26.42;15.90;;;7.50;99.90;;;;;;5035785;28;20111;-68
2021/10/26 02:58:46;;;;;;;29.00;15.88;;;7.50;99.90;;;;;;5035347;28;20413;-70
2021/10/26 03:01:13;;;;;;;27.55;15.98;;;7.30;99.90;;;;;;5037621;28;20045;-68
2021/10/26 03:03:41;;;;;;;25.05;15.38;;;7.40;99.90;;;;;;5036279;28;20045;-69
2021/10/26 03:06:08;;;;;;;30.30;15.25;;;7.40;99.90;;;;;;5035373;28;20056;-69
2021/10/26 03:08:35;;;;;;;26.42;15.07;;;7.40;99.90;;;;;;5035873;28;20084;-68
2021/10/26 03:11:02;;;;;;;28.55;15.35;;;7.30;99.90;;;;;;5035562;28;20052;-69
2021/10/26 03:13:30;;;;;;;25.13;15.98;;;7.50;99.90;;;;;;5034989;28;20513;-68
2021/10/26 03:15:57;;;;;;;27.33;15.30;;;7.40;99.90;;;;;;5035719;28;20481;-68
2021/10/26 03:18:24;;;;;;;26.38;15.30;;;7.50;99.90;;;;;;5036178;28;20057;-68
2021/10/26 03:20:53;;;;;;;26.85;15.50;;;7.50;99.90;;;;;;5035606;28;20395;-68
2021/10/26 03:23:20;;;;;;;24.75;14.70;;;7.40;99.90;;;;;;5036124;28;20053;-68
2021/10/26 03:25:47;;;;;;;26.13;14.88;;;7.50;99.90;;;;;;5036626;28;20080;-69
2021/10/26 03:28:14;;;;;;;26.02;15.25;;;7.50;99.90;;;;;;5036858;28;20055;-71
2021/10/26 03:30:42;;;;;;;23.83;14.00;;;7.50;99.90;;;;;;5036453;28;20460;-68
2021/10/26 03:33:09;;;;;;;24.25;15.02;;;7.50;99.90;;;;;;5036224;28;20053;-68
2021/10/26 03:35:36;;;;;;;26.27;15.23;;;7.50;99.90;;;;;;5036034;28;20053;-68
2021/10/26 03:38:06;;;;;;;27.63;14.75;;;7.40;99.90;;;;;;5036047;28;20158;-69
2021/10/26 03:40:33;;;;;;;27.60;14.40;;;7.50;99.90;;;;;;5034875;28;20057;-68
2021/10/26 03:43:00;;;;;;;25.58;15.50;;;7.50;99.90;;;;;;5035611;28;20547;-69
2021/10/26 03:45:28;;;;;;;25.48;14.68;;;7.50;99.90;;;;;;5035287;28;20049;-73
2021/10/26 03:47:55;;;;;;;30.95;15.02;;;7.50;99.90;;;;;;5035531;28;20058;-68
2021/10/26 03:50:22;;;;;;;28.67;16.38;;;7.50;99.90;;;;;;5035842;28;20134;-68
2021/10/26 03:52:49;;;;;;;27.55;15.65;;;7.40;99.90;;;;;;5036147;28;20049;-68
2021/10/26 03:55:18;;;;;;;28.35;15.68;;;7.40;99.90;;;;;;5034213;28;20056;-73
2021/10/26 03:57:45;;;;;;;25.92;15.35;;;7.40;99.90;;;;;;5033510;28;20589;-69
2021/10/26 04:00:13;;;;;;;27.85;15.95;;;7.30;99.90;;;;;;5033079;28;20076;-69
2021/10/26 04:02:41;;;;;;;28.85;15.27;;;7.30;99.90;;;;;;5032210;28;20556;-69
2021/10/26 04:05:16;;;;;;;28.85;16.17;;;7.30;99.90;;;;;;5032141;28;20044;-69
2021/10/26 04:07:48;;;;;;;25.05;14.85;;;7.30;99.90;;;;;;5032870;28;20070;-68
2021/10/26 04:10:19;;;;;;;26.83;15.18;;;7.30;99.90;;;;;;5033040;28;20057;-69
2021/10/26 04:12:46;;;;;;;24.95;14.93;;;7.40;99.90;;;;;;5033104;28;20057;-69
2021/10/26 04:15:13;;;;;;;26.45;15.73;;;7.30;99.90;;;;;;5032196;28;20157;-68
2021/10/26 04:17:40;;;;;;;25.65;15.40;;;7.30;99.90;;;;;;5032408;28;20619;-70
2021/10/26 04:20:08;;;;;;;24.60;15.32;;;7.40;99.90;;;;;;5031392;28;20529;-69
2021/10/26 04:22:35;;;;;;;26.05;14.30;;;7.40;99.90;;;;;;5032159;28;20509;-69
2021/10/26 04:25:02;;;;;;;27.38;14.63;;;7.50;99.90;;;;;;5034702;28;20778;-67
2021/10/26 04:27:31;;;;;;;25.73;14.75;;;7.40;99.90;;;;;;5034161;28;20505;-69
2021/10/26 04:29:58;;;;;;;27.23;13.82;;;7.40;99.90;;;;;;5034151;28;20134;-69
2021/10/26 04:32:25;;;;;;;27.98;15.23;;;7.40;99.90;;;;;;5035117;28;20138;-68
2021/10/26 04:34:52;;;;;;;24.20;13.70;;;7.50;99.90;;;;;;5034514;28;20516;-68
2021/10/26 04:37:19;;;;;;;26.70;13.40;;;7.40;99.90;;;;;;5033906;28;20080;-69
2021/10/26 04:39:46;;;;;;;29.98;14.48;;;7.40;99.90;;;;;;5033931;28;20061;-68
2021/10/26 04:42:13;;;;;;;27.58;15.10;;;7.50;99.90;;;;;;5034182;28;20505;-69
2021/10/26 04:44:41;;;;;;;26.05;14.05;;;7.60;99.90;;;;;;5036279;28;20085;-69
2021/10/26 04:47:09;;;;;;;26.73;14.75;;;7.50;99.90;;;;;;5033586;28;20057;-69
2021/10/26 04:49:36;;;;;;;25.33;13.80;;;7.50;99.90;;;;;;5034176;28;20110;-69
2021/10/26 04:52:03;;;;;;;26.17;15.00;;;7.50;99.90;;;;;;5033847;28;21001;-69
2021/10/26 04:54:30;;;;;;;22.50;14.10;;;7.50;99.90;;;;;;5033737;28;20049;-69
2021/10/26 04:56:57;;;;;;;24.38;13.52;;;7.50;99.90;;;;;;5033313;28;20053;-71
2021/10/26 04:59:24;;;;;;;23.90;14.13;;;7.50;99.90;;;;;;5033749;28;20060;-71
2021/10/26 05:01:53;;;;;;;24.13;13.43;;;7.50;99.90;;;;;;5036273;28;20487;-69
2021/10/26 05:04:20;;;;;;;27.50;14.02;;;7.50;99.90;;;;;;5037907;28;20107;-69
2021/10/26 05:06:47;;;;;;;27.38;13.82;;;7.50;99.90;;;;;;5037740;28;20106;-69
2021/10/26 05:09:14;;;;;;;29.60;14.23;;;7.60;99.90;;;;;;5037594;28;20816;-69
2021/10/26 05:11:41;;;;;;;24.63;15.13;;;7.40;99.90;;;;;;5038375;28;20052;-69
2021/10/26 05:14:08;;;;;;;26.40;14.60;;;7.40;99.90;;;;;;5040208;28;20127;-70
2021/10/26 05:16:35;;;;;;;29.77;16.45;;;9.50;99.90;;;;;;5038945;28;20775;-70
2021/10/26 05:19:06;;;;;;;32.63;17.17;;;9.00;99.90;;;;;;5039416;28;20157;-70
2021/10/26 05:21:33;;;;;;;25.90;15.25;;;8.70;99.90;;;;;;5039902;28;20068;-70
2021/10/26 05:24:00;;;;;;;30.15;16.27;;;8.40;99.90;;;;;;5039933;28;20106;-70
2021/10/26 05:26:28;;;;;;;27.98;15.63;;;8.30;99.90;;;;;;5039345;28;20118;-70
2021/10/26 05:28:55;;;;;;;29.67;15.60;;;8.20;99.90;;;;;;5039517;28;20091;-71
2021/10/26 05:31:22;;;;;;;28.83;16.05;;;8.20;99.90;;;;;;5040680;28;20064;-70
2021/10/26 05:33:49;;;;;;;29.50;16.25;;;8.20;99.90;;;;;;5040780;28;20115;-71
2021/10/26 05:36:18;;;;;;;32.15;17.80;;;8.10;99.90;;;;;;5039842;28;20056;-70
2021/10/26 05:38:45;;;;;;;23.98;15.38;;;8.10;99.90;;;;;;5040705;28;20057;-68
2021/10/26 05:41:13;;;;;;;31.23;17.90;;;8.10;99.90;;;;;;5039930;28;20057;-69
2021/10/26 05:43:40;;;;;;;31.63;17.08;;;8.20;99.90;;;;;;5039858;28;20769;-70
2021/10/26 05:46:07;;;;;;;29.80;16.95;;;8.10;99.90;;;;;;5040405;28;20045;-70
2021/10/26 05:48:35;;;;;;;26.30;15.00;;;8.10;99.90;;;;;;5040609;28;20263;-70
2021/10/26 05:51:04;;;;;;;31.90;16.65;;;8.10;99.90;;;;;;5040349;28;20045;-70
2021/10/26 05:53:34;;;;;;;31.75;16.30;;;8.20;99.90;;;;;;5039666;28;20064;-70
2021/10/26 05:56:01;;;;;;;31.00;16.48;;;8.20;99.90;;;;;;5038780;28;20052;-70
2021/10/26 05:58:29;;;;;;;29.52;16.40;;;8.00;99.90;;;;;;5039585;28;20052;-70
2021/10/26 06:00:56;;;;;;;31.45;17.50;;;8.00;99.90;;;;;;5039748;28;20049;-70
2021/10/26 06:03:23;;;;;;;28.45;16.27;;;8.10;99.90;;;;;;5038538;28;20119;-70
2021/10/26 06:05:50;;;;;;;28.40;16.42;;;8.10;99.90;;;;;;5040697;28;20071;-70
2021/10/26 06:08:18;;;;;;;29.60;16.40;;;8.10;99.90;;;;;;5040508;28;20061;-70
2021/10/26 06:10:51;;;;;;;27.13;16.10;;;8.10;99.90;;;;;;5039618;28;20052;-70
2021/10/26 06:13:23;;;;;;;32.10;16.83;;;8.10;99.90;;;;;;5040853;28;20457;-70
2021/10/26 06:15:51;;;;;;;33.35;16.45;;;8.10;99.90;;;;;;5039204;28;20391;-70
2021/10/26 06:18:18;;;;;;;33.70;17.33;;;8.10;99.90;;;;;;5039798;28;20048;-70
2021/10/26 06:20:45;;;;;;;27.85;16.30;;;8.10;99.90;;;;;;5039052;28;20417;-70
2021/10/26 06:23:12;;;;;;;29.17;15.60;;;8.20;99.90;;;;;;5039598;28;20111;-70
2021/10/26 06:25:39;;;;;;;26.85;16.00;;;8.20;99.90;;;;;;5038213;28;20049;-70
2021/10/26 06:28:08;;;;;;;35.08;17.58;;;8.20;99.90;;;;;;5038190;28;20053;-70
2021/10/26 06:30:35;;;;;;;32.13;17.33;;;8.30;99.90;;;;;;5038648;28;20049;-70
2021/10/26 06:33:02;;;;;;;27.80;16.40;;;8.30;99.90;;;;;;5039626;28;20044;-73
2021/10/26 06:35:29;;;;;;;35.60;18.10;;;8.20;99.90;;;;;;5039385;28;20060;-70
2021/10/26 06:37:56;;;;;;;27.13;15.82;;;8.20;99.90;;;;;;5040793;28;20099;-70
2021/10/26 06:40:24;;;;;;;28.30;16.15;;;8.20;99.90;;;;;;5037720;28;20107;-70
2021/10/26 06:42:51;;;;;;;30.73;16.50;;;8.20;99.90;;;;;;5039049;28;20060;-70
2021/10/26 06:45:20;;;;;;;32.28;17.33;;;8.30;99.90;;;;;;5039522;28;20410;-69
2021/10/26 06:47:47;;;;;;;27.27;16.70;;;8.30;99.90;;;;;;5039921;28;20094;-69
2021/10/26 06:50:14;;;;;;;28.73;16.98;;;8.30;99.90;;;;;;5036580;28;20064;-73
2021/10/26 06:52:41;;;;;;;29.80;16.67;;;8.40;99.90;;;;;;5036565;28;20049;-69
2021/10/26 06:55:09;;;;;;;30.30;16.38;;;8.40;99.90;;;;;;5037376;28;20049;-69
2021/10/26 06:57:37;;;;;;;30.05;17.52;;;8.40;99.90;;;;;;5036800;28;20155;-69
2021/10/26 07:00:06;;;;;;;30.58;17.10;;;8.50;99.90;;;;;;5035672;28;20053;-70
2021/10/26 07:02:45;;;;;;;30.40;17.73;;;8.50;99.90;;;;;;5036594;28;20497;-69
2021/10/26 07:05:12;;;;;;;28.25;16.38;;;8.50;99.90;;;;;;5036184;28;20080;-69
2021/10/26 07:07:39;;;;;;;28.77;16.63;;;8.60;99.90;;;;;;5034268;28;20049;-69
2021/10/26 07:10:07;;;;;;;25.83;16.10;;;8.70;99.90;;;;;;5036038;28;20087;-69
2021/10/26 07:12:35;;;;;;;27.65;16.10;;;8.70;99.90;;;;;;5035280;28;20067;-69
2021/10/26 07:15:06;;;;;;;31.23;16.77;;;8.70;99.90;;;;;;5037290;28;20126;-69
2021/10/26 07:17:35;;;;;;;30.73;16.65;;;8.70;99.90;;;;;;5038092;28;20061;-69
2021/10/26 07:20:02;;;;;;;32.85;18.17;;;8.70;99.90;;;;;;5038079;28;20497;-69
2021/10/26 07:22:29;;;;;;;29.95;17.38;;;8.70;99.90;;;;;;5036664;28;20053;-69
2021/10/26 07:24:58;;;;;;;28.80;16.17;;;8.70;99.90;;;;;;5035853;28;20045;-70
2021/10/26 07:27:25;;;;;;;30.95;16.55;;;8.70;99.90;;;;;;5036746;28;20060;-69
2021/10/26 07:29:52;;;;;;;29.10;17.08;;;8.70;99.90;;;;;;5037130;28;20080;-69
2021/10/26 07:32:20;;;;;;;32.22;17.00;;;8.70;99.90;;;;;;5034938;28;20087;-69
2021/10/26 07:34:49;;;;;;;29.77;17.05;;;8.80;99.90;;;;;;5036383;28;20596;-69
2021/10/26 07:37:20;;;;;;;30.42;17.35;;;8.90;99.90;;;;;;5033845;28;20049;-69
2021/10/26 07:39:49;;;;;;;33.33;17.73;;;9.10;99.90;;;;;;5035134;28;20414;-69
2021/10/26 07:42:17;;;;;;;28.88;16.30;;;9.10;99.90;;;;;;5034662;28;20053;-69
2021/10/26 07:44:45;;;;;;;32.13;17.88;;;9.20;99.90;;;;;;5034426;28;20063;-68
2021/10/26 07:47:15;;;;;;;32.20;17.48;;;9.30;99.90;;;;;;5033408;28;20049;-68
2021/10/26 07:49:43;;;;;;;34.05;17.77;;;9.40;99.90;;;;;;5028359;28;20049;-68
2021/10/26 07:52:13;;;;;;;31.42;17.45;;;9.40;99.90;;;;;;5031917;28;20056;-69
2021/10/26 07:54:41;;;;;;;32.53;17.17;;;9.50;99.90;;;;;;5034918;28;20057;-69
2021/10/26 07:57:08;;;;;;;33.28;17.25;;;9.50;99.90;;;;;;5034467;28;20140;-70
2021/10/26 07:59:35;;;;;;;33.65;18.42;;;9.40;99.90;;;;;;5028518;28;20335;-69
2021/10/26 08:02:02;;;;;;;29.48;16.98;;;9.50;99.90;;;;;;5032090;28;20059;-69
2021/10/26 08:04:29;;;;;;;27.85;16.20;;;9.50;99.90;;;;;;5035446;28;20286;-69
2021/10/26 08:06:56;;;;;;;28.45;16.40;;;9.60;99.90;;;;;;5034579;28;20535;-69
2021/10/26 08:09:24;;;;;;;32.05;17.33;;;9.80;99.90;;;;;;5035018;28;20088;-68
2021/10/26 08:11:51;;;;;;;29.13;16.98;;;9.80;99.90;;;;;;5035232;28;20505;-68
2021/10/26 08:14:18;;;;;;;25.55;16.25;;;9.90;99.90;;;;;;5033129;28;20098;-69
2021/10/26 08:16:45;;;;;;;30.80;16.58;;;9.90;99.90;;;;;;5033081;28;20084;-68
2021/10/26 08:19:12;;;;;;;30.92;17.08;;;9.70;99.90;;;;;;5034770;28;20080;-69
2021/10/26 08:21:40;;;;;;;34.70;18.40;;;9.70;99.90;;;;;;5033660;28;20095;-69
2021/10/26 08:24:07;;;;;;;30.17;18.05;;;9.90;99.90;;;;;;5034936;28;20142;-69
2021/10/26 08:26:39;;;;;;;34.00;17.52;;;9.90;99.90;;;;;;5033819;28;20120;-69
2021/10/26 08:29:12;;;;;;;29.70;16.95;;;9.90;99.90;;;;;;5034944;28;20060;-69
2021/10/26 08:31:45;;;;;;;29.58;17.02;;;9.90;99.90;;;;;;5035863;28;20056;-69
2021/10/26 08:34:18;;;;;;;28.35;16.95;;;9.90;99.90;;;;;;5033395;28;20090;-69
2021/10/26 08:36:47;;;;;;;31.83;18.08;;;10.20;99.90;;;;;;5034432;28;20052;-69
2021/10/26 08:39:15;;;;;;;33.72;17.80;;;10.30;99.90;;;;;;5033577;28;20143;-69
2021/10/26 08:41:49;;;;;;;31.60;18.15;;;10.20;99.90;;;;;;5030975;28;20052;-69
2021/10/26 08:44:18;;;;;;;30.33;17.05;;;10.40;99.90;;;;;;5032220;28;20055;-69
2021/10/26 08:46:46;;;;;;;26.38;16.02;;;10.50;99.90;;;;;;5034616;28;20053;-69
2021/10/26 08:49:14;;;;;;;28.80;17.35;;;10.50;99.90;;;;;;5034383;28;20543;-69
2021/10/26 08:51:43;;;;;;;25.17;16.70;;;10.60;99.90;;;;;;5032618;28;20044;-72
2021/10/26 08:54:11;;;;;;;28.88;17.52;;;10.50;99.90;;;;;;5034697;28;20211;-69
2021/10/26 08:56:38;;;;;;;29.00;17.48;;;10.40;99.90;;;;;;5033487;28;20144;-69
2021/10/26 08:59:07;;;;;;;32.70;18.02;;;10.40;99.90;;;;;;5033672;28;20106;-70
2021/10/26 09:01:34;;;;;;;27.75;17.17;;;10.40;99.90;;;;;;5033769;28;20096;-69
2021/10/26 09:04:12;;;;;;;37.50;17.85;;;10.40;99.90;;;;;;5032704;28;20247;-71
2021/10/26 09:06:46;;;;;;;31.00;18.98;;;10.40;99.90;;;;;;5033286;28;20087;-69
2021/10/26 09:09:18;;;;;;;30.88;17.45;;;10.40;99.90;;;;;;5033392;28;20056;-69
2021/10/26 09:17:26;;;;;;;34.17;17.80;;;10.60;99.90;;;;;;5026264;28;20154;-70
2021/10/26 09:19:54;;;;;;;30.05;19.02;;;10.80;99.90;;;;;;5026674;28;20056;-70
2021/10/26 09:22:21;;;;;;;31.20;17.52;;;10.90;99.90;;;;;;5025738;28;20041;-70
2021/10/26 09:24:56;;;;;;;30.50;17.95;;;11.00;99.90;;;;;;5026231;28;20930;-70
2021/10/26 09:27:24;;;;;;;31.58;17.60;;;11.10;99.90;;;;;;5024993;28;20088;-69
2021/10/26 09:29:56;;;;;;;28.52;17.63;;;11.40;99.90;;;;;;5032280;28;20448;-69
2021/10/26 09:32:25;;;;;;;28.42;17.45;;;11.40;99.90;;;;;;5032736;28;20395;-71
2021/10/26 09:34:55;;;;;;;27.02;16.38;;;11.40;99.90;;;;;;5033329;28;20131;-70
2021/10/26 09:37:23;;;;;;;28.92;17.20;;;11.50;99.90;;;;;;5033270;28;20505;-69
2021/10/26 09:39:55;;;;;;;28.48;16.25;;;11.60;99.90;;;;;;5032991;28;20106;-69
2021/10/26 09:42:23;;;;;;;26.73;16.67;;;11.70;99.90;;;;;;5033335;28;20122;-70
2021/10/26 09:44:55;;;;;;;22.80;14.70;;;11.70;99.90;;;;;;5032606;28;20061;-69
2021/10/26 09:47:25;;;;;;;26.88;15.77;;;11.60;99.90;;;;;;5031931;28;20798;-69
2021/10/26 09:49:56;;;;;;;24.85;15.95;;;11.70;99.90;;;;;;5035285;28;20110;-70
2021/10/26 09:52:25;;;;;;;28.05;15.25;;;11.70;99.90;;;;;;5036582;28;20448;-71
2021/10/26 09:55:11;;;;;;;32.63;16.08;;;11.80;99.90;;;;;;5036434;28;20053;-70
2021/10/26 09:57:40;;;;;;;25.40;16.42;;;12.00;99.90;;;;;;5035159;28;20057;-71
2021/10/26 10:00:09;;;;;;;28.13;15.77;;;12.00;99.90;;;;;;5035947;28;20572;-71
2021/10/26 10:02:36;;;;;;;29.17;16.17;;;12.10;99.90;;;;;;5035094;28;20466;-71
2021/10/26 10:05:05;;;;;;;25.67;15.60;;;12.10;99.90;;;;;;5033528;28;20071;-69
2021/10/26 10:07:33;;;;;;;22.00;15.15;;;12.10;99.90;;;;;;5032810;28;20099;-69
2021/10/26 10:10:04;;;;;;;23.00;14.07;;;12.30;99.90;;;;;;5033447;28;20057;-69
2021/10/26 10:12:31;;;;;;;23.25;14.15;;;12.30;99.90;;;;;;5032315;28;20143;-71
2021/10/26 10:14:59;;;;;;;24.38;14.73;;;12.40;99.90;;;;;;5031498;28;20084;-70
2021/10/26 10:17:28;;;;;;;24.60;14.73;;;12.30;99.90;;;;;;5032956;28;20053;-71
2021/10/26 10:19:56;;;;;;;22.88;13.23;;;12.40;99.90;;;;;;5035538;28;20057;-71
2021/10/26 10:22:31;;;;;;;22.92;14.20;;;12.20;99.90;;;;;;5035624;28;20577;-71
2021/10/26 10:24:59;;;;;;;23.23;14.23;;;12.20;99.90;;;;;;5036168;28;20119;-71
2021/10/26 10:27:28;;;;;;;25.33;15.32;;;12.10;99.90;;;;;;5034315;28;20493;-69
2021/10/26 10:29:56;;;;;;;21.98;13.25;;;12.30;99.90;;;;;;5036634;28;20040;-71
2021/10/26 10:32:25;;;;;;;21.00;12.65;;;12.40;99.90;;;;;;5036037;28;20055;-71
2021/10/26 10:34:55;;;;;;;27.90;13.43;;;12.50;99.90;;;;;;5035367;28;20187;-71
2021/10/26 10:37:24;;;;;;;21.63;12.25;;;12.70;99.90;;;;;;5035927;28;20053;-71
2021/10/26 10:39:55;;;;;;;18.75;11.48;;;12.80;99.90;;;;;;5037442;28;20080;-76
2021/10/26 10:42:24;;;;;;;23.48;11.30;;;12.80;99.90;;;;;;5035953;28;20045;-74
2021/10/26 10:44:53;;;;;;;20.15;12.20;;;12.90;99.90;;;;;;5036285;28;20140;-71
2021/10/26 10:47:39;;;;;;;18.35;10.63;;;12.80;99.90;;;;;;5033819;28;20057;-71
2021/10/26 10:50:27;;;;;;;19.98;11.27;;;13.10;99.90;;;;;;5034645;28;20049;-75
2021/10/26 10:53:21;;;;;;;16.17;9.90;;;12.80;99.90;;;;;;5034291;28;20132;-71
2021/10/26 10:55:51;;;;;;;20.27;11.57;;;12.80;99.90;;;;;;4999566;28;20076;-73
2021/10/26 10:58:40;;;;;;;20.60;11.90;;;12.80;99.90;;;;;;5035051;28;20060;-72
2021/10/26 11:01:34;;;;;;;20.00;11.65;;;12.90;99.90;;;;;;5036605;28;20048;-73
2021/10/26 11:04:21;;;;;;;26.00;12.35;;;12.70;99.90;;;;;;5037577;28;20057;-73
2021/10/26 11:06:55;;;;;;;23.63;14.48;;;12.50;99.90;;;;;;5036158;28;20067;-72
2021/10/26 11:09:45;;;;;;;19.00;11.75;;;12.50;99.90;;;;;;5035434;28;20602;-74
2021/10/26 11:12:16;;;;;;;15.05;8.68;;;12.40;99.90;;;;;;5036853;28;20160;-70
2021/10/26 11:14:44;;;;;;;14.88;8.35;;;12.50;99.90;;;;;;5037367;28;20464;-71
2021/10/26 11:17:54;;;;;;;13.15;7.65;;;12.30;99.90;;;;;;5036983;28;20122;-76
2021/10/26 11:20:44;;;;;;;12.88;6.97;;;12.40;99.90;;;;;;5013442;28;20045;-71
2021/10/26 11:23:15;;;;;;;11.23;6.15;;;12.40;99.90;;;;;;5036131;28;20571;-74
2021/10/26 11:25:46;;;;;;;14.43;7.35;;;12.40;99.90;;;;;;5035034;28;20048;-74
2021/10/26 11:28:36;;;;;;;10.88;5.55;;;12.50;99.90;;;;;;5035017;28;20870;-75
2021/10/26 11:31:06;;;;;;;11.75;5.45;;;12.60;99.90;;;;;;5034223;28;20052;-72
2021/10/26 11:33:37;;;;;;;11.75;5.05;;;12.60;99.90;;;;;;5034611;28;20510;-71
2021/10/26 11:36:06;;;;;;;10.55;4.95;;;12.60;99.90;;;;;;5033730;28;20049;-71
2021/10/26 11:38:38;;;;;;;8.50;4.60;;;12.60;99.90;;;;;;5033556;28;20772;-71
2021/10/26 11:41:08;;;;;;;10.13;4.70;;;12.50;99.90;;;;;;5035664;28;20083;-73
2021/10/26 11:43:41;;;;;;;9.45;4.35;;;12.50;99.90;;;;;;5033602;28;20049;-72
2021/10/26 11:46:10;;;;;;;11.05;4.82;;;12.70;99.90;;;;;;5033746;28;20052;-74
2021/10/26 11:48:45;;;;;;;9.50;4.50;;;12.90;99.90;;;;;;5031488;28;20049;-74
2021/10/26 11:51:23;;;;;;;8.30;3.80;;;13.00;99.90;;;;;;5031757;28;20052;-73
2021/10/26 11:53:52;;;;;;;7.90;3.67;;;12.70;99.90;;;;;;5031886;28;20180;-71
2021/10/26 11:56:28;;;;;;;7.35;3.75;;;12.70;99.90;;;;;;5030665;28;20056;-71
2021/10/26 11:59:00;;;;;;;8.57;3.70;;;12.70;99.90;;;;;;5032519;28;20109;-72
2021/10/26 12:01:45;;;;;;;7.93;3.83;;;12.80;99.90;;;;;;5031069;28;20099;-74
2021/10/26 12:04:31;;;;;;;7.78;3.80;;;12.80;99.90;;;;;;5032382;28;20140;-73
2021/10/26 12:07:00;;;;;;;12.57;3.83;;;12.90;99.90;;;;;;5030987;28;20501;-73
2021/10/26 12:09:31;;;;;;;9.82;4.25;;;13.00;99.90;;;;;;5032008;28;20147;-74
2021/10/26 12:12:05;;;;;;;8.18;3.30;;;12.80;99.90;;;;;;5034506;28;20049;-72
2021/10/26 12:14:34;;;;;;;9.88;3.90;;;12.80;99.90;;;;;;5033445;28;20057;-72
2021/10/26 12:17:23;;;;;;;11.38;4.07;;;12.80;99.90;;;;;;5032673;28;20139;-73
2021/10/26 12:19:57;;;;;;;6.93;3.60;;;12.70;99.90;;;;;;5033161;28;20385;-72
2021/10/26 12:22:28;;;;;;;8.60;3.80;;;12.60;99.90;;;;;;5033884;28;20143;-72
2021/10/26 12:25:18;;;;;;;10.82;4.43;;;12.50;99.90;;;;;;5035049;28;20128;-72
2021/10/26 12:27:48;;;;;;;11.07;4.40;;;12.50;99.90;;;;;;5034492;28;20064;-72
2021/10/26 12:30:18;;;;;;;9.98;4.50;;;12.70;99.90;;;;;;5033793;28;20049;-72
2021/10/26 12:32:50;;;;;;;8.07;3.97;;;12.60;99.90;;;;;;5031994;28;20138;-72
2021/10/26 12:35:18;;;;;;;11.07;4.38;;;12.90;99.90;;;;;;5032307;28;20049;-71
2021/10/26 12:37:45;;;;;;;10.32;4.30;;;12.70;99.90;;;;;;5033583;28;20057;-71
2021/10/26 12:40:18;;;;;;;8.70;3.85;;;12.70;99.90;;;;;;5034439;28;20076;-73
2021/10/26 12:42:48;;;;;;;8.70;3.95;;;12.90;99.90;;;;;;5036056;28;20912;-72
2021/10/26 12:45:17;;;;;;;8.07;3.95;;;13.00;99.90;;;;;;5034218;28;20057;-72
2021/10/26 12:47:56;;;;;;;7.50;4.10;;;12.90;99.90;;;;;;5035429;28;20057;-70
2021/10/26 12:50:34;;;;;;;8.32;3.78;;;13.20;99.90;;;;;;5034595;28;20892;-70
2021/10/26 12:53:12;;;;;;;10.88;3.25;;;13.50;99.90;;;;;;5034436;28;20140;-71